Rio Grande, Texas
Current Conditions -  °F | °C
As of 2:35 AM on Monday 22 Dec 2014 (Local Time) from KEBG Reporting Station
Haze Haze  
Wind Chill: 62°   Ceiling: 2100
Heat Index: 62°   Visibility: 5mi
Dew Point: 58°   Wind: 0mph
Humidity: 89%   Direction: NA
Pressure: 29.83"   Gusts: NA
Location:  26.5735°N, 98.695°W
Report Text: KEBG 220835Z AUTO 00000KT 5SM BR OVC021 17/15 A2983 RMK AO2 T01650146
Loading
Personal Weather Stations






























Interactive Weather Map New forecast layout! Learn more

10-Day Weather Forecast

Advertisements
Track Severe Weather on mobile